Time;durP1;ratioP1;P1;durP2;ratioP2;P2;SDS_P1;SDS_P2;PMS_P1;PMS_P2;Temp;Humidity;BMP_temperature;BMP_pressure;BME280_temperature;BME280_humidity;BME280_pressure;Samples;Min_cycle;Max_cycle;Signal;HPM_P1;HPM_P2
2021/01/24 00:01:46;;;;;;;6.80;3.70;;;7.00;85.30;;;;;;5034538;28;20033;-49
2021/01/24 00:04:12;;;;;;;4.32;2.97;;;7.00;85.30;;;;;;5035901;28;20030;-49
2021/01/24 00:06:38;;;;;;;7.82;3.83;;;7.00;85.30;;;;;;5023351;28;20022;-49
2021/01/24 00:09:03;;;;;;;6.47;3.53;;;7.00;85.30;;;;;;5016227;28;20030;-49
2021/01/24 00:11:29;;;;;;;5.03;3.50;;;7.00;85.30;;;;;;5016339;28;20117;-49
2021/01/24 00:13:55;;;;;;;6.90;3.10;;;7.00;85.40;;;;;;5017123;28;20113;-49
2021/01/24 00:16:20;;;;;;;8.68;3.80;;;7.00;85.40;;;;;;5015934;28;20072;-50
2021/01/24 00:18:46;;;;;;;4.75;3.40;;;7.00;85.40;;;;;;5019520;28;20021;-49
2021/01/24 00:21:11;;;;;;;5.95;3.67;;;7.00;85.40;;;;;;5035745;28;20044;-49
2021/01/24 00:23:37;;;;;;;6.75;4.07;;;7.00;86.20;;;;;;5034213;28;20032;-49
2021/01/24 00:26:03;;;;;;;4.43;2.78;;;7.00;85.50;;;;;;5034541;28;20041;-49
2021/01/24 00:28:28;;;;;;;7.43;3.95;;;7.00;85.50;;;;;;5035974;28;20398;-49
2021/01/24 00:30:54;;;;;;;1.40;1.25;;;7.00;85.50;;;;;;5035769;28;20443;-49
2021/01/24 00:33:20;;;;;;;7.20;3.60;;;7.00;85.50;;;;;;5034266;28;20045;-49
2021/01/24 00:35:45;;;;;;;4.38;2.97;;;7.00;85.50;;;;;;5035367;28;20371;-49
2021/01/24 00:38:11;;;;;;;2.92;1.98;;;7.00;85.50;;;;;;5034932;28;20030;-49
2021/01/24 00:40:37;;;;;;;6.63;3.75;;;7.00;85.60;;;;;;5035435;28;20044;-49
2021/01/24 00:43:03;;;;;;;5.22;3.38;;;7.00;85.50;;;;;;5035602;28;20022;-49
2021/01/24 00:45:29;;;;;;;4.15;2.60;;;7.00;85.50;;;;;;5033478;28;20037;-49
2021/01/24 00:47:54;;;;;;;3.80;2.22;;;7.00;85.50;;;;;;5035567;28;20029;-49
2021/01/24 00:50:20;;;;;;;3.38;2.10;;;7.00;85.50;;;;;;5035431;28;20029;-49
2021/01/24 00:52:45;;;;;;;1.73;1.52;;;7.00;85.50;;;;;;5035847;28;20022;-49
2021/01/24 00:55:11;;;;;;;2.67;1.95;;;7.00;85.60;;;;;;5033615;28;20025;-49
2021/01/24 00:57:37;;;;;;;2.15;1.45;;;7.00;85.50;;;;;;5035197;28;20431;-49
2021/01/24 01:00:05;;;;;;;2.13;1.20;;;7.00;85.60;;;;;;5034933;28;20037;-49
2021/01/24 01:02:31;;;;;;;2.30;1.20;;;7.00;85.60;;;;;;5035371;28;20645;-49
2021/01/24 01:04:56;;;;;;;2.53;1.38;;;7.00;85.60;;;;;;5033386;28;20022;-49
2021/01/24 01:07:22;;;;;;;1.40;1.30;;;7.00;85.60;;;;;;5014946;28;20026;-49
2021/01/24 01:09:48;;;;;;;0.82;0.82;;;7.00;85.60;;;;;;5015263;28;20014;-49
2021/01/24 01:12:14;;;;;;;1.95;1.65;;;7.00;85.60;;;;;;5015358;28;20018;-49
2021/01/24 01:14:39;;;;;;;2.13;1.20;;;7.00;85.60;;;;;;5015347;28;20040;-49
2021/01/24 01:17:05;;;;;;;1.35;1.25;;;7.00;85.70;;;;;;5015750;28;20142;-49
2021/01/24 01:19:30;;;;;;;1.50;1.25;;;7.00;85.70;;;;;;5015485;28;20058;-49
2021/01/24 01:21:56;;;;;;;1.25;1.00;;;7.00;85.70;;;;;;5014775;28;20049;-49
2021/01/24 01:24:22;;;;;;;1.42;1.02;;;7.00;85.70;;;;;;5014982;28;20026;-49
2021/01/24 01:26:47;;;;;;;1.15;0.90;;;7.00;85.70;;;;;;5015580;28;20041;-49
2021/01/24 01:29:13;;;;;;;1.63;1.45;;;7.00;85.70;;;;;;5015114;28;20105;-49
2021/01/24 01:31:39;;;;;;;1.50;1.00;;;7.00;85.70;;;;;;5014994;28;20033;-49
2021/01/24 01:34:04;;;;;;;1.23;1.00;;;7.00;85.80;;;;;;5015008;28;20026;-49
2021/01/24 01:36:31;;;;;;;1.02;0.93;;;7.00;85.80;;;;;;5013943;28;20117;-49
2021/01/24 01:38:58;;;;;;;2.17;0.88;;;6.90;85.70;;;;;;5015644;28;20048;-49
2021/01/24 01:41:31;;;;;;;0.88;0.85;;;6.90;85.70;;;;;;5027990;28;20475;-49
2021/01/24 01:43:57;;;;;;;2.38;1.10;;;6.90;85.70;;;;;;5034671;28;20022;-49
2021/01/24 01:46:26;;;;;;;0.88;0.73;;;6.90;85.80;;;;;;5034061;28;20044;-49
2021/01/24 01:48:52;;;;;;;0.43;0.43;;;6.90;85.80;;;;;;5032771;28;20029;-49
2021/01/24 01:51:18;;;;;;;1.63;1.23;;;6.90;85.80;;;;;;5034140;28;20029;-49
2021/01/24 01:53:45;;;;;;;0.63;0.63;;;6.90;85.80;;;;;;5034455;28;20045;-49
2021/01/24 01:56:14;;;;;;;1.35;0.95;;;6.90;85.90;;;;;;5014160;28;20044;-49
2021/01/24 01:58:41;;;;;;;0.60;0.60;;;6.90;85.80;;;;;;5025192;28;20025;-49
2021/01/24 02:01:25;;;;;;;1.05;0.95;;;6.90;85.90;;;;;;5037203;28;20128;-49
2021/01/24 02:04:11;;;;;;;3.13;1.30;;;6.90;85.80;;;;;;5050546;28;20040;-49
2021/01/24 02:06:44;;;;;;;2.15;0.98;;;6.90;85.90;;;;;;5040049;28;20033;-49
2021/01/24 02:09:13;;;;;;;1.17;1.08;;;6.90;85.90;;;;;;5021842;28;20237;-49
2021/01/24 02:11:48;;;;;;;0.77;0.77;;;6.90;85.90;;;;;;5014034;28;20034;-49
2021/01/24 02:14:29;;;;;;;0.55;0.55;;;6.90;85.90;;;;;;5014043;28;20127;-49
2021/01/24 02:16:55;;;;;;;;;;;6.90;85.90;;;;;;5015306;28;20029;-49
2021/01/24 02:19:35;;;;;;;1.60;0.82;;;6.90;85.90;;;;;;5015425;28;19917;-49
2021/01/24 02:22:01;;;;;;;0.82;0.80;;;6.90;85.90;;;;;;5013912;28;20046;-49
2021/01/24 02:24:30;;;;;;;4.32;0.85;;;6.90;86.00;;;;;;5013820;28;20030;-49
2021/01/24 02:27:34;;;;;;;0.52;0.52;;;6.90;85.90;;;;;;5013777;28;20030;-49
2021/01/24 02:30:21;;;;;;;3.35;1.42;;;6.90;85.90;;;;;;5022081;28;20100;-49
2021/01/24 02:32:50;;;;;;;1.25;1.15;;;6.90;85.90;;;;;;5030988;28;20605;-49
2021/01/24 02:35:16;;;;;;;0.95;0.95;;;6.90;85.90;;;;;;5031178;28;20096;-49
2021/01/24 02:37:44;;;;;;;0.90;0.77;;;6.90;85.90;;;;;;5048866;28;20103;-50
2021/01/24 02:40:10;;;;;;;0.80;0.80;;;6.90;85.90;;;;;;5049332;28;20029;-50
2021/01/24 02:42:37;;;;;;;4.18;0.98;;;6.90;85.90;;;;;;5039418;28;20421;-49
2021/01/24 02:45:04;;;;;;;2.75;1.20;;;6.90;85.80;;;;;;5031187;28;20086;-49
2021/01/24 02:47:31;;;;;;;1.80;1.05;;;6.90;85.90;;;;;;5030218;28;20497;-49
2021/01/24 02:49:59;;;;;;;1.30;1.20;;;6.90;85.90;;;;;;5030617;28;20116;-49
2021/01/24 02:52:25;;;;;;;0.55;0.55;;;6.90;85.90;;;;;;5031841;28;20061;-49
2021/01/24 02:54:52;;;;;;;0.82;0.82;;;6.90;85.90;;;;;;5030903;28;20045;-49
2021/01/24 02:57:18;;;;;;;0.45;0.40;;;6.90;85.90;;;;;;5030703;28;20021;-49
2021/01/24 02:59:44;;;;;;;1.13;1.02;;;6.90;85.90;;;;;;5029385;28;20033;-50
2021/01/24 03:02:10;;;;;;;0.60;0.60;;;6.90;85.90;;;;;;5022983;28;20050;-49
2021/01/24 03:04:36;;;;;;;0.98;0.80;;;6.90;85.90;;;;;;5032554;28;20025;-49
2021/01/24 03:07:02;;;;;;;0.85;0.85;;;6.90;85.90;;;;;;5016033;28;20062;-49
2021/01/24 03:09:27;;;;;;;0.40;0.40;;;6.90;85.90;;;;;;5013523;28;20026;-49
2021/01/24 03:11:54;;;;;;;0.30;0.30;;;6.90;85.90;;;;;;5014304;28;20428;-49
2021/01/24 03:14:26;;;;;;;1.33;1.00;;;6.90;85.90;;;;;;5013436;28;20022;-49
2021/01/24 03:16:57;;;;;;;0.40;0.40;;;6.90;85.90;;;;;;5013251;28;20084;-49
2021/01/24 03:19:26;;;;;;;0.45;0.30;;;6.90;86.00;;;;;;5013327;28;20348;-49
2021/01/24 03:21:53;;;;;;;0.40;0.40;;;6.90;86.00;;;;;;5013198;28;20128;-49
2021/01/24 03:24:22;;;;;;;0.50;0.50;;;6.90;86.10;;;;;;5014430;28;20084;-49
2021/01/24 03:26:48;;;;;;;0.70;0.70;;;6.90;86.10;;;;;;5012905;28;20061;-49
2021/01/24 03:29:14;;;;;;;1.45;0.85;;;6.90;86.10;;;;;;5015340;28;20435;-49
2021/01/24 03:31:45;;;;;;;1.55;0.98;;;6.90;86.00;;;;;;5032955;28;20116;-49
2021/01/24 03:34:22;;;;;;;1.42;0.90;;;6.90;86.00;;;;;;5017728;28;20061;-49
2021/01/24 03:36:51;;;;;;;0.63;0.50;;;6.90;86.00;;;;;;5012786;28;20033;-49
2021/01/24 03:39:17;;;;;;;0.40;0.40;;;6.90;85.90;;;;;;5012667;28;20042;-49
2021/01/24 03:41:43;;;;;;;0.57;0.57;;;6.90;85.90;;;;;;5013368;28;20360;-50
2021/01/24 03:44:09;;;;;;;0.50;0.50;;;6.90;85.90;;;;;;5020765;28;20466;-49
2021/01/24 03:46:36;;;;;;;0.50;0.40;;;6.90;85.90;;;;;;5032487;28;20148;-49
2021/01/24 03:49:02;;;;;;;0.45;0.45;;;6.90;85.90;;;;;;5032425;28;20112;-49
2021/01/24 03:51:28;;;;;;;0.55;0.55;;;6.90;85.90;;;;;;5032720;28;20435;-49
2021/01/24 03:53:54;;;;;;;0.95;0.60;;;6.90;85.90;;;;;;5031382;28;20053;-49
2021/01/24 03:56:21;;;;;;;0.47;0.47;;;6.90;85.90;;;;;;5032634;28;20033;-49
2021/01/24 03:58:46;;;;;;;0.75;0.50;;;6.90;85.90;;;;;;5016538;28;20086;-49
2021/01/24 04:01:12;;;;;;;0.40;0.40;;;6.90;85.80;;;;;;5016513;28;20042;-49
2021/01/24 04:03:38;;;;;;;3.20;0.55;;;6.90;85.90;;;;;;5016650;28;20076;-50
2021/01/24 04:06:03;;;;;;;0.30;0.30;;;6.80;85.80;;;;;;5026135;28;20057;-49
2021/01/24 04:08:29;;;;;;;0.40;0.40;;;6.90;85.90;;;;;;5036291;28;20068;-49
2021/01/24 04:10:55;;;;;;;1.02;0.50;;;6.90;85.90;;;;;;5035455;28;20033;-49
2021/01/24 04:13:21;;;;;;;0.82;0.70;;;6.90;86.00;;;;;;5036415;28;20052;-49
2021/01/24 04:15:47;;;;;;;0.30;0.30;;;6.80;85.90;;;;;;5035980;28;20436;-49
2021/01/24 04:18:13;;;;;;;0.20;0.20;;;6.80;86.00;;;;;;5036093;28;20049;-49
2021/01/24 04:20:38;;;;;;;0.40;0.40;;;6.80;86.10;;;;;;5034460;28;20021;-49
2021/01/24 04:23:04;;;;;;;0.30;0.30;;;6.80;86.00;;;;;;5035594;28;20029;-50
2021/01/24 04:25:30;;;;;;;0.40;0.40;;;6.80;86.10;;;;;;5035809;28;20339;-49
2021/01/24 04:27:56;;;;;;;0.40;0.40;;;6.80;86.10;;;;;;5035726;28;20360;-49
2021/01/24 04:30:22;;;;;;;0.38;0.38;;;6.80;86.10;;;;;;5035824;28;20032;-49
2021/01/24 04:32:48;;;;;;;0.40;0.40;;;6.80;86.10;;;;;;5034182;28;20034;-50
2021/01/24 04:35:13;;;;;;;0.40;0.40;;;6.80;86.10;;;;;;5035365;28;20025;-49
2021/01/24 04:37:39;;;;;;;0.60;0.50;;;6.80;86.10;;;;;;5035144;28;20081;-50
2021/01/24 04:40:06;;;;;;;0.50;0.50;;;6.80;86.10;;;;;;5035880;28;20032;-50
2021/01/24 04:42:32;;;;;;;0.40;0.40;;;6.80;86.10;;;;;;5033886;28;20433;-49
2021/01/24 04:44:58;;;;;;;0.40;0.40;;;6.80;86.10;;;;;;5035782;28;20378;-49
2021/01/24 04:47:26;;;;;;;3.50;0.50;;;6.80;86.10;;;;;;5034979;28;20061;-49
2021/01/24 04:49:52;;;;;;;0.52;0.52;;;6.80;86.10;;;;;;5035426;28;20033;-49
2021/01/24 04:52:17;;;;;;;0.60;0.60;;;6.70;86.10;;;;;;5034952;28;20088;-50
2021/01/24 04:54:44;;;;;;;1.75;0.77;;;6.80;86.20;;;;;;5033520;28;20037;-49
2021/01/24 04:57:11;;;;;;;0.52;0.52;;;6.80;86.10;;;;;;5035276;28;20033;-49
2021/01/24 04:59:37;;;;;;;0.88;0.63;;;6.70;86.00;;;;;;5030561;28;20057;-49
2021/01/24 05:02:04;;;;;;;0.75;0.60;;;6.70;86.00;;;;;;5015536;28;20077;-49
2021/01/24 05:04:30;;;;;;;0.30;0.30;;;6.70;86.00;;;;;;5016321;28;20030;-49
2021/01/24 05:06:55;;;;;;;0.60;0.60;;;6.70;86.00;;;;;;5027960;28;20359;-49
2021/01/24 05:09:21;;;;;;;0.50;0.50;;;6.70;86.10;;;;;;5015220;28;20341;-49
2021/01/24 05:11:53;;;;;;;0.93;0.80;;;6.70;86.00;;;;;;5014930;28;20404;-50
2021/01/24 05:14:22;;;;;;;0.20;0.20;;;6.70;86.10;;;;;;5016361;28;20030;-49
2021/01/24 05:16:49;;;;;;;0.50;0.50;;;6.70;86.10;;;;;;5014965;28;20030;-50
2021/01/24 05:19:15;;;;;;;0.73;0.65;;;6.70;86.10;;;;;;5014831;28;20033;-49
2021/01/24 05:21:41;;;;;;;0.88;0.57;;;6.70;86.20;;;;;;5015264;28;20041;-49
2021/01/24 05:24:18;;;;;;;0.80;0.70;;;6.70;86.20;;;;;;5015470;28;20077;-49
2021/01/24 05:26:45;;;;;;;0.93;0.50;;;6.70;86.10;;;;;;5015926;28;20129;-50
2021/01/24 05:29:19;;;;;;;0.50;0.50;;;6.70;86.20;;;;;;5014948;28;20430;-49
2021/01/24 05:31:46;;;;;;;0.40;0.40;;;6.70;86.20;;;;;;5014771;28;20022;-50
2021/01/24 05:34:15;;;;;;;0.47;0.47;;;6.60;86.10;;;;;;5015092;28;20053;-49
2021/01/24 05:36:45;;;;;;;0.95;0.88;;;6.60;86.10;;;;;;5015619;28;20029;-49
2021/01/24 05:39:12;;;;;;;0.52;0.50;;;6.60;86.10;;;;;;5014749;28;20456;-49
2021/01/24 05:41:37;;;;;;;2.95;0.98;;;6.60;86.10;;;;;;5014637;28;20041;-49
2021/01/24 05:44:11;;;;;;;0.70;0.70;;;6.60;86.10;;;;;;5014629;28;20519;-49
2021/01/24 05:46:37;;;;;;;1.27;0.80;;;6.60;86.10;;;;;;5015303;28;20056;-49
2021/01/24 05:49:03;;;;;;;0.80;0.80;;;6.60;86.10;;;;;;5014196;28;20026;-50
2021/01/24 05:51:29;;;;;;;1.08;0.90;;;6.50;86.10;;;;;;5014205;28;20030;-49
2021/01/24 05:53:57;;;;;;;1.15;0.75;;;6.60;86.20;;;;;;5025676;28;20325;-49
2021/01/24 05:56:23;;;;;;;0.80;0.80;;;6.50;86.20;;;;;;5034109;28;20024;-50
2021/01/24 05:58:58;;;;;;;0.98;0.88;;;6.50;86.20;;;;;;5032592;28;20025;-49
2021/01/24 06:01:25;;;;;;;1.02;0.90;;;6.50;86.20;;;;;;5032374;28;20037;-49
2021/01/24 06:03:54;;;;;;;4.43;0.93;;;6.50;86.20;;;;;;5034151;28;20025;-49
2021/01/24 06:06:20;;;;;;;0.70;0.70;;;6.50;86.10;;;;;;5022266;28;20030;-49
2021/01/24 06:08:47;;;;;;;2.00;1.15;;;6.50;86.20;;;;;;5015320;28;20059;-49
2021/01/24 06:11:14;;;;;;;1.40;1.05;;;6.50;86.20;;;;;;5021122;28;20359;-50
2021/01/24 06:13:41;;;;;;;1.73;0.93;;;6.40;86.10;;;;;;5023758;28;20025;-49
2021/01/24 06:16:10;;;;;;;3.50;1.00;;;6.50;86.20;;;;;;5022352;28;20025;-49
2021/01/24 06:18:44;;;;;;;2.78;0.80;;;6.50;86.10;;;;;;5024057;28;20051;-50
2021/01/24 06:21:18;;;;;;;1.13;0.70;;;6.40;86.10;;;;;;5024590;28;20065;-49
2021/01/24 06:23:57;;;;;;;1.42;0.85;;;6.50;86.90;;;;;;5023205;28;20451;-49
2021/01/24 06:26:25;;;;;;;1.00;0.90;;;6.40;86.10;;;;;;5023410;28;20073;-50
2021/01/24 06:28:59;;;;;;;2.17;0.77;;;6.40;86.10;;;;;;5017243;28;20600;-49
2021/01/24 06:31:25;;;;;;;1.10;0.80;;;6.40;86.10;;;;;;5013953;28;20075;-49
2021/01/24 06:33:52;;;;;;;1.23;1.10;;;6.40;86.00;;;;;;5021745;28;20363;-49
2021/01/24 06:36:18;;;;;;;1.48;0.93;;;6.40;86.10;;;;;;5023874;28;20065;-49
2021/01/24 06:38:51;;;;;;;0.80;0.80;;;6.40;86.00;;;;;;5025001;28;20030;-50
2021/01/24 06:41:44;;;;;;;1.58;0.75;;;6.40;86.00;;;;;;5018558;28;20443;-49
2021/01/24 06:44:34;;;;;;;3.33;1.60;;;6.40;86.10;;;;;;5018202;28;20030;-49
2021/01/24 06:47:01;;;;;;;;;;;6.40;86.10;;;;;;5021283;28;20114;-49
2021/01/24 06:49:43;;;;;;;4.53;1.17;;;6.40;86.10;;;;;;5022600;28;20330;-49
2021/01/24 06:52:23;;;;;;;1.35;1.25;;;6.40;86.10;;;;;;5022755;28;20036;-49
2021/01/24 06:54:50;;;;;;;1.35;1.13;;;6.30;85.90;;;;;;5019442;28;20215;-50
2021/01/24 06:57:17;;;;;;;2.42;1.17;;;6.30;85.90;;;;;;5020764;28;20076;-49
2021/01/24 06:59:43;;;;;;;2.08;1.30;;;6.30;85.90;;;;;;5022459;28;20026;-49
2021/01/24 07:02:26;;;;;;;0.75;0.65;;;6.30;85.90;;;;;;5022121;28;20033;-50
2021/01/24 07:05:23;;;;;;;6.95;1.20;;;6.30;85.90;;;;;;5023402;28;20117;-49
2021/01/24 07:07:51;;;;;;;1.40;1.13;;;6.30;85.90;;;;;;5016972;28;20026;-49
2021/01/24 07:10:38;;;;;;;3.35;1.38;;;6.30;85.80;;;;;;5017597;28;20044;-49
2021/01/24 07:13:25;;;;;;;2.33;1.50;;;6.30;85.80;;;;;;5021085;28;20026;-49
2021/01/24 07:15:55;;;;;;;0.80;0.80;;;6.30;85.80;;;;;;5021718;28;20026;-49
2021/01/24 07:18:22;;;;;;;1.85;1.27;;;6.30;85.80;;;;;;5018804;28;20026;-49
2021/01/24 07:20:49;;;;;;;1.40;1.05;;;6.30;85.80;;;;;;5020424;28;20041;-50
2021/01/24 07:23:16;;;;;;;1.25;1.05;;;6.30;85.80;;;;;;5022237;28;20439;-50
2021/01/24 07:25:42;;;;;;;2.67;1.17;;;6.30;85.70;;;;;;5019384;28;20061;-49
2021/01/24 07:28:09;;;;;;;3.05;1.85;;;6.30;85.70;;;;;;5016700;28;20033;-49
2021/01/24 07:30:39;;;;;;;2.70;1.60;;;6.30;85.60;;;;;;5021598;28;20057;-49
2021/01/24 07:33:05;;;;;;;;;;;6.30;85.50;;;;;;5022955;28;20030;-50
2021/01/24 07:35:34;;;;;;;0.93;0.93;;;6.30;85.50;;;;;;5023895;28;19909;-49
2021/01/24 07:38:00;;;;;;;1.48;1.00;;;6.30;85.50;;;;;;5022258;28;20061;-50
2021/01/24 07:40:27;;;;;;;3.17;0.80;;;6.30;85.40;;;;;;5021445;28;20025;-49
2021/01/24 07:42:54;;;;;;;0.68;0.68;;;6.30;85.40;;;;;;5028245;28;20045;-49
2021/01/24 07:45:19;;;;;;;1.45;0.90;;;6.30;85.40;;;;;;5021702;28;20030;-50
2021/01/24 07:47:45;;;;;;;1.95;1.20;;;6.30;85.40;;;;;;5021344;28;20498;-49
2021/01/24 07:50:11;;;;;;;2.05;1.33;;;6.40;85.40;;;;;;5022375;28;20753;-49
2021/01/24 07:52:37;;;;;;;0.95;0.95;;;6.30;85.30;;;;;;5016169;28;20352;-49
2021/01/24 07:55:04;;;;;;;2.75;1.40;;;6.30;85.30;;;;;;5015696;28;20026;-49
2021/01/24 07:57:30;;;;;;;1.30;0.90;;;6.40;85.30;;;;;;5016548;28;20034;-49
2021/01/24 07:59:55;;;;;;;2.67;0.98;;;6.40;85.30;;;;;;5018690;28;20488;-49
2021/01/24 08:02:21;;;;;;;1.50;1.25;;;6.40;85.30;;;;;;5020060;28;20137;-50
2021/01/24 08:04:47;;;;;;;2.13;1.00;;;6.40;85.20;;;;;;5026351;28;20021;-49
2021/01/24 08:07:12;;;;;;;1.70;0.98;;;6.40;85.20;;;;;;5024063;28;20053;-49
2021/01/24 08:09:38;;;;;;;2.25;1.60;;;6.40;85.20;;;;;;5026156;28;20057;-49
2021/01/24 08:12:11;;;;;;;1.45;0.90;;;6.40;85.20;;;;;;5024267;28;20025;-49
2021/01/24 08:14:38;;;;;;;1.58;1.17;;;6.40;85.20;;;;;;5034435;28;20106;-49
2021/01/24 08:17:06;;;;;;;2.30;0.90;;;6.40;85.00;;;;;;5026681;28;20084;-49
2021/01/24 08:19:32;;;;;;;2.42;1.67;;;6.50;84.90;;;;;;5019562;28;21307;-49
2021/01/24 08:21:58;;;;;;;2.85;1.20;;;6.40;84.70;;;;;;5026261;28;20519;-50
2021/01/24 08:24:24;;;;;;;1.60;1.10;;;6.50;84.80;;;;;;5019812;28;20117;-49
2021/01/24 08:26:50;;;;;;;6.13;1.48;;;6.50;84.70;;;;;;5027487;28;20439;-49
2021/01/24 08:29:16;;;;;;;1.92;1.17;;;6.60;84.70;;;;;;5021852;28;20033;-49
2021/01/24 08:31:45;;;;;;;4.85;1.27;;;6.70;84.70;;;;;;5032361;28;20505;-50
2021/01/24 08:34:12;;;;;;;3.92;0.82;;;6.70;84.70;;;;;;5019178;28;20038;-50
2021/01/24 08:36:38;;;;;;;1.17;1.08;;;6.80;84.60;;;;;;5025999;28;20398;-49
2021/01/24 08:39:05;;;;;;;2.50;1.00;;;6.70;83.50;;;;;;5015200;28;20061;-48
2021/01/24 08:41:32;;;;;;;4.03;1.83;;;6.60;81.80;;;;;;5016012;28;20022;-49
2021/01/24 08:44:15;;;;;;;2.30;1.50;;;6.50;80.50;;;;;;5016617;28;20124;-48
2021/01/24 08:46:45;;;;;;;1.38;1.20;;;6.30;80.10;;;;;;5014426;28;20048;-49
2021/01/24 08:49:19;;;;;;;0.50;0.50;;;6.30;78.60;;;;;;5015696;28;20034;-49
2021/01/24 08:51:46;;;;;;;0.70;0.63;;;6.30;77.70;;;;;;5032332;28;20103;-48
2021/01/24 08:54:32;;;;;;;0.73;0.73;;;6.20;77.10;;;;;;5032718;28;20063;-49
2021/01/24 08:57:18;;;;;;;1.42;1.00;;;6.20;76.60;;;;;;5030217;28;20056;-48
2021/01/24 08:59:49;;;;;;;1.60;1.02;;;6.20;76.00;;;;;;5023179;28;20018;-49
2021/01/24 09:02:35;;;;;;;3.17;1.17;;;6.20;75.80;;;;;;5015387;28;20034;-49
2021/01/24 09:05:03;;;;;;;1.42;0.93;;;6.20;75.50;;;;;;5025029;28;20037;-48
2021/01/24 09:07:55;;;;;;;7.32;1.33;;;6.10;75.30;;;;;;5022919;28;20025;-48
2021/01/24 09:10:23;;;;;;;0.40;0.40;;;6.10;74.80;;;;;;5016637;28;20076;-48
2021/01/24 09:12:54;;;;;;;0.52;0.47;;;6.10;74.60;;;;;;5014500;28;20395;-48
2021/01/24 09:15:21;;;;;;;5.65;1.92;;;6.10;74.50;;;;;;5023885;28;20044;-48
2021/01/24 09:17:48;;;;;;;1.05;0.95;;;6.10;74.20;;;;;;5034671;28;20463;-49
2021/01/24 09:20:17;;;;;;;1.45;1.10;;;6.20;74.00;;;;;;5034854;28;20072;-49
2021/01/24 09:22:43;;;;;;;0.60;0.60;;;6.20;74.10;;;;;;5034674;28;20030;-49
2021/01/24 09:25:09;;;;;;;0.55;0.55;;;6.20;74.60;;;;;;5033327;28;20025;-49
2021/01/24 09:27:36;;;;;;;0.40;0.40;;;6.20;73.60;;;;;;5034413;28;20582;-49
2021/01/24 09:30:08;;;;;;;0.60;0.60;;;6.20;73.30;;;;;;5034622;28;20072;-49
2021/01/24 09:32:34;;;;;;;0.47;0.47;;;6.20;73.30;;;;;;5022900;28;20030;-49
2021/01/24 09:34:59;;;;;;;0.65;0.63;;;6.20;73.00;;;;;;5023485;28;20036;-48
2021/01/24 09:37:25;;;;;;;0.75;0.75;;;6.20;73.10;;;;;;5032277;28;20051;-49
2021/01/24 09:39:51;;;;;;;0.60;0.60;;;6.20;72.70;;;;;;5034625;28;20021;-48
2021/01/24 09:42:17;;;;;;;1.80;1.13;;;6.30;72.70;;;;;;5034433;28;20099;-48
2021/01/24 09:44:43;;;;;;;3.70;0.88;;;6.30;72.70;;;;;;5034351;28;20030;-49
2021/01/24 09:47:08;;;;;;;1.48;0.98;;;6.30;72.50;;;;;;5028063;28;20022;-49
2021/01/24 09:49:34;;;;;;;4.25;1.30;;;6.30;72.20;;;;;;5014496;28;20467;-48
2021/01/24 09:52:00;;;;;;;3.05;1.52;;;6.30;72.20;;;;;;5014406;28;20468;-49
2021/01/24 09:54:25;;;;;;;0.55;0.55;;;6.30;72.40;;;;;;5014305;28;20072;-49
2021/01/24 09:56:51;;;;;;;0.68;0.57;;;6.30;72.20;;;;;;5015356;28;20033;-49
2021/01/24 09:59:17;;;;;;;4.78;1.08;;;6.30;72.00;;;;;;5017976;28;20030;-49
2021/01/24 10:01:43;;;;;;;1.80;0.55;;;6.40;72.20;;;;;;5023752;28;20037;-48
2021/01/24 10:04:09;;;;;;;3.13;1.77;;;6.30;72.30;;;;;;5034185;28;20100;-48
2021/01/24 10:06:35;;;;;;;1.20;0.55;;;6.40;72.00;;;;;;5031695;28;20083;-48
2021/01/24 10:09:01;;;;;;;2.25;1.15;;;6.40;72.00;;;;;;5033745;28;20395;-48
2021/01/24 10:11:27;;;;;;;0.77;0.75;;;6.40;71.90;;;;;;5034275;28;20029;-49
2021/01/24 10:13:53;;;;;;;5.93;1.83;;;6.40;72.10;;;;;;5033751;28;20055;-48
2021/01/24 10:16:19;;;;;;;0.52;0.52;;;6.40;71.90;;;;;;5023920;28;20091;-49
2021/01/24 10:18:45;;;;;;;3.03;1.42;;;6.40;71.10;;;;;;5013945;28;20021;-48
2021/01/24 10:21:10;;;;;;;2.88;1.27;;;6.40;71.10;;;;;;5013836;28;20080;-49
2021/01/24 10:23:37;;;;;;;2.42;1.58;;;6.40;71.50;;;;;;5013973;28;20037;-49
2021/01/24 10:26:03;;;;;;;0.60;0.60;;;6.40;71.20;;;;;;5014867;28;20029;-48
2021/01/24 10:28:29;;;;;;;3.50;1.25;;;6.40;71.40;;;;;;5013517;28;20052;-49
2021/01/24 10:30:54;;;;;;;0.80;0.80;;;6.30;70.90;;;;;;5013917;28;20083;-49
2021/01/24 10:33:21;;;;;;;0.40;0.40;;;6.30;71.30;;;;;;5015477;28;20022;-49
2021/01/24 10:35:48;;;;;;;1.52;1.00;;;6.40;71.30;;;;;;5033373;28;20451;-49
2021/01/24 10:38:15;;;;;;;0.55;0.55;;;6.40;71.20;;;;;;5031205;28;20036;-49
2021/01/24 10:40:41;;;;;;;2.22;0.93;;;6.40;71.00;;;;;;5033666;28;20029;-48
2021/01/24 10:43:07;;;;;;;2.70;0.98;;;6.40;71.00;;;;;;5033536;28;20466;-48
2021/01/24 10:45:34;;;;;;;0.30;0.30;;;6.40;70.60;;;;;;5033214;28;20033;-49
2021/01/24 10:48:01;;;;;;;3.53;0.82;;;6.40;70.50;;;;;;5031589;28;20352;-48
2021/01/24 10:50:28;;;;;;;1.27;0.85;;;6.40;70.20;;;;;;5027360;28;20040;-48
2021/01/24 10:52:54;;;;;;;1.00;0.90;;;6.40;70.40;;;;;;5022970;28;20025;-48
2021/01/24 10:55:20;;;;;;;3.72;1.63;;;6.40;70.00;;;;;;5021232;28;20029;-49
2021/01/24 10:57:46;;;;;;;1.13;0.82;;;6.40;69.50;;;;;;5013585;28;20033;-48
2021/01/24 11:00:12;;;;;;;1.48;1.38;;;6.40;69.90;;;;;;5032772;28;20033;-49
2021/01/24 11:02:38;;;;;;;2.10;1.00;;;6.40;70.00;;;;;;5032416;28;20035;-48
2021/01/24 11:05:05;;;;;;;1.17;1.02;;;6.40;69.90;;;;;;5014444;28;20632;-49
2021/01/24 11:07:31;;;;;;;0.30;0.30;;;6.40;69.50;;;;;;5032937;28;20025;-49
2021/01/24 11:09:56;;;;;;;1.10;0.95;;;6.50;69.50;;;;;;5036010;28;20116;-49
2021/01/24 11:12:23;;;;;;;1.10;1.08;;;6.40;70.20;;;;;;5027601;28;20080;-48
2021/01/24 11:14:49;;;;;;;3.33;0.60;;;6.50;70.60;;;;;;5019815;28;20422;-48
2021/01/24 11:17:15;;;;;;;2.00;1.40;;;6.50;70.20;;;;;;5024454;28;20079;-49
2021/01/24 11:19:40;;;;;;;0.90;0.90;;;6.50;70.20;;;;;;5029564;28;20033;-48
2021/01/24 11:22:06;;;;;;;0.88;0.85;;;6.50;70.50;;;;;;5019758;28;20444;-48
2021/01/24 11:24:32;;;;;;;0.80;0.80;;;6.60;70.40;;;;;;5019714;28;20041;-48
2021/01/24 11:26:58;;;;;;;0.38;0.38;;;6.60;70.30;;;;;;5019663;28;20037;-48
2021/01/24 11:29:24;;;;;;;1.17;0.90;;;6.60;70.70;;;;;;5020782;28;20067;-48
2021/01/24 11:31:52;;;;;;;0.70;0.70;;;6.60;70.40;;;;;;5019736;28;20060;-49
2021/01/24 11:34:18;;;;;;;0.90;0.85;;;6.60;69.00;;;;;;5019874;28;20033;-48
2021/01/24 11:36:44;;;;;;;1.60;0.95;;;6.60;69.60;;;;;;5019753;28;20025;-48
2021/01/24 11:39:10;;;;;;;0.73;0.65;;;6.60;69.60;;;;;;5019601;28;20041;-48
2021/01/24 11:41:35;;;;;;;5.60;0.88;;;6.60;69.70;;;;;;5037578;28;20057;-48
2021/01/24 11:44:01;;;;;;;0.68;0.68;;;6.60;69.50;;;;;;5031581;28;20101;-48
2021/01/24 11:46:27;;;;;;;0.40;0.40;;;6.60;69.20;;;;;;5019254;28;20022;-48
2021/01/24 11:48:53;;;;;;;1.63;0.80;;;6.50;68.40;;;;;;5019590;28;20056;-48
2021/01/24 11:51:18;;;;;;;1.15;0.70;;;6.50;68.00;;;;;;5031451;28;20108;-48
2021/01/24 11:53:44;;;;;;;1.38;0.85;;;6.50;68.00;;;;;;5039258;28;20105;-48
2021/01/24 11:56:10;;;;;;;3.13;0.88;;;6.50;68.20;;;;;;5039378;28;20079;-48
2021/01/24 11:58:36;;;;;;;0.80;0.80;;;6.50;68.10;;;;;;5026846;28;20049;-49
2021/01/24 12:01:02;;;;;;;1.02;0.98;;;6.50;68.10;;;;;;5020667;28;20038;-48
2021/01/24 12:03:27;;;;;;;0.28;0.28;;;6.50;68.30;;;;;;5019615;28;20149;-49
2021/01/24 12:05:53;;;;;;;1.40;0.68;;;6.50;68.70;;;;;;5026824;28;20040;-48
2021/01/24 12:08:19;;;;;;;0.85;0.82;;;6.60;69.00;;;;;;5038969;28;20079;-48
2021/01/24 12:10:44;;;;;;;0.77;0.77;;;6.60;69.00;;;;;;5021224;28;20531;-48
2021/01/24 12:13:10;;;;;;;4.60;0.90;;;6.60;69.50;;;;;;5020618;28;20033;-48
2021/01/24 12:15:36;;;;;;;0.40;0.40;;;6.60;69.00;;;;;;5019335;28;20105;-48
2021/01/24 12:18:01;;;;;;;4.28;1.15;;;6.60;68.80;;;;;;5019190;28;20036;-49
2021/01/24 12:20:27;;;;;;;0.57;0.57;;;6.60;68.90;;;;;;5018537;28;20410;-48
2021/01/24 12:22:53;;;;;;;0.73;0.73;;;6.60;69.10;;;;;;5024072;28;20082;-48
2021/01/24 12:25:19;;;;;;;0.43;0.43;;;6.60;67.20;;;;;;5035617;28;20074;-48
2021/01/24 12:27:44;;;;;;;1.58;0.70;;;6.60;68.90;;;;;;5034558;28;20033;-48
2021/01/24 12:30:10;;;;;;;0.60;0.60;;;6.60;68.40;;;;;;5023839;28;20104;-48
2021/01/24 12:32:36;;;;;;;0.45;0.45;;;6.60;67.80;;;;;;5030242;28;20457;-48
2021/01/24 12:35:02;;;;;;;0.70;0.70;;;6.60;67.30;;;;;;5028743;28;20041;-49
2021/01/24 12:37:28;;;;;;;1.85;0.98;;;6.50;67.50;;;;;;5031984;28;20030;-49
2021/01/24 12:39:53;;;;;;;0.77;0.77;;;6.50;67.30;;;;;;5016182;28;20026;-49
2021/01/24 12:42:19;;;;;;;1.45;0.88;;;6.50;67.00;;;;;;5031582;28;20359;-48
2021/01/24 12:44:45;;;;;;;5.45;1.20;;;6.50;66.90;;;;;;5025716;28;20497;-49
2021/01/24 12:47:11;;;;;;;2.13;1.13;;;6.50;66.90;;;;;;5019453;28;20041;-48
2021/01/24 12:49:38;;;;;;;0.70;0.70;;;6.50;66.60;;;;;;5028825;28;20355;-48
2021/01/24 12:52:04;;;;;;;1.48;0.80;;;6.50;66.90;;;;;;5035420;28;20029;-49
2021/01/24 12:54:29;;;;;;;0.68;0.68;;;6.50;66.40;;;;;;5022304;28;20080;-49
2021/01/24 12:56:55;;;;;;;1.08;0.60;;;6.40;66.20;;;;;;5015394;28;20025;-49
2021/01/24 12:59:21;;;;;;;1.83;0.80;;;6.40;65.80;;;;;;5015617;28;20026;-48
2021/01/24 13:01:46;;;;;;;0.85;0.75;;;6.40;66.10;;;;;;5015209;28;20038;-49